createdAt,value
2023-05-05T00:00:22.443Z,1212.00
2023-05-05T00:01:22.509Z,1210.00
2023-05-05T00:02:22.646Z,1211.00
2023-05-05T00:03:22.677Z,1212.00
2023-05-05T00:04:22.734Z,1211.00
2023-05-05T00:05:22.683Z,1212.00
2023-05-05T00:06:22.658Z,1214.00
2023-05-05T00:07:22.692Z,1216.00
2023-05-05T00:08:22.802Z,1215.00
2023-05-05T00:09:22.727Z,1215.00
2023-05-05T00:10:22.758Z,1210.00
2023-05-05T00:11:22.862Z,1209.00
2023-05-05T00:12:22.857Z,1205.00
2023-05-05T00:13:22.908Z,1206.00
2023-05-05T00:14:22.914Z,1206.00
2023-05-05T00:15:23.011Z,1206.00
2023-05-05T00:16:23.185Z,1203.00
2023-05-05T00:17:23.063Z,1204.00
2023-05-05T00:18:23.081Z,1202.00
2023-05-05T00:19:23.113Z,1202.00
2023-05-05T00:20:23.124Z,1199.00
2023-05-05T00:21:23.190Z,1200.00
2023-05-05T00:22:23.273Z,1201.00
2023-05-05T00:23:23.268Z,1199.00
2023-05-05T00:24:23.307Z,1192.00
2023-05-05T00:25:23.330Z,1190.00
2023-05-05T00:26:23.373Z,1192.00
2023-05-05T00:27:23.402Z,1188.00
2023-05-05T00:28:23.440Z,1186.00
2023-05-05T00:29:23.541Z,1187.00
2023-05-05T00:30:23.519Z,1183.00
2023-05-05T00:31:23.596Z,1186.00
2023-05-05T00:32:23.570Z,1187.00
2023-05-05T00:33:23.633Z,1185.00
2023-05-05T00:34:23.657Z,1187.00
2023-05-05T00:35:23.680Z,1184.00
2023-05-05T00:36:23.716Z,1187.00
2023-05-05T00:37:23.771Z,1188.00
2023-05-05T00:38:23.774Z,1185.00
2023-05-05T00:39:23.803Z,1187.00
2023-05-05T00:40:23.829Z,1188.00
2023-05-05T00:41:23.873Z,1189.00
2023-05-05T00:42:23.923Z,1188.00
2023-05-05T00:43:23.946Z,1187.00
2023-05-05T00:44:23.953Z,1187.00
2023-05-05T00:45:24.012Z,1187.00
2023-05-05T00:46:24.099Z,1182.00
2023-05-05T00:47:24.115Z,1182.00
2023-05-05T00:48:24.134Z,1179.00
2023-05-05T00:49:24.174Z,1175.00
2023-05-05T00:50:24.194Z,1176.00
2023-05-05T00:51:24.193Z,1173.00
2023-05-05T00:52:24.260Z,1175.00
2023-05-05T00:53:24.285Z,1175.00
2023-05-05T00:54:24.319Z,1173.00
2023-05-05T00:55:24.367Z,1174.00
2023-05-05T00:56:24.403Z,1173.00
2023-05-05T00:57:24.464Z,1176.00
2023-05-05T00:58:24.466Z,1176.00
2023-05-05T00:59:24.498Z,1174.00
2023-05-05T01:00:24.506Z,1172.00
2023-05-05T01:01:24.597Z,1169.00
2023-05-05T01:02:24.607Z,1164.00
2023-05-05T01:03:24.840Z,1164.00
2023-05-05T01:04:24.614Z,1162.00
2023-05-05T01:05:24.639Z,1161.00
2023-05-05T01:06:24.695Z,1161.00
2023-05-05T01:07:25.182Z,1161.00
2023-05-05T01:08:24.764Z,1166.00
2023-05-05T01:09:24.793Z,1169.00
2023-05-05T01:10:25.112Z,1169.00
2023-05-05T01:11:24.852Z,1167.00
2023-05-05T01:12:24.894Z,1165.00
2023-05-05T01:13:24.977Z,1168.00
2023-05-05T01:14:24.946Z,1170.00
2023-05-05T01:15:25.020Z,1171.00
2023-05-05T01:16:25.060Z,1166.00
2023-05-05T01:17:25.073Z,1162.00
2023-05-05T01:18:25.115Z,1160.00
2023-05-05T01:19:25.113Z,1160.00
2023-05-05T01:20:25.166Z,1161.00
2023-05-05T01:21:25.201Z,1161.00
2023-05-05T01:22:25.223Z,1154.00
2023-05-05T01:23:25.257Z,1154.00
2023-05-05T01:24:25.301Z,1159.00
2023-05-05T01:25:25.333Z,1158.00
2023-05-05T01:26:25.362Z,1158.00
2023-05-05T01:27:25.436Z,1157.00
2023-05-05T01:28:25.451Z,1154.00
2023-05-05T01:29:25.440Z,1154.00
2023-05-05T01:30:25.466Z,1158.00
2023-05-05T01:31:25.605Z,1157.00
2023-05-05T01:32:25.577Z,1153.00
2023-05-05T01:33:25.581Z,1155.00
2023-05-05T01:34:25.613Z,1152.00
2023-05-05T01:35:25.679Z,1153.00
2023-05-05T01:36:25.693Z,1154.00
2023-05-05T01:37:25.761Z,1155.00
2023-05-05T01:38:25.783Z,1155.00
2023-05-05T01:39:25.795Z,1155.00
2023-05-05T01:40:25.822Z,1155.00
2023-05-05T01:41:25.830Z,1152.00
2023-05-05T01:42:25.882Z,1149.00
2023-05-05T01:43:25.929Z,1151.00
2023-05-05T01:44:25.936Z,1148.00
2023-05-05T01:45:26.036Z,1149.00
2023-05-05T01:46:26.007Z,1149.00
2023-05-05T01:47:26.102Z,1147.00
2023-05-05T01:48:26.076Z,1149.00
2023-05-05T01:49:26.118Z,1148.00
2023-05-05T01:50:26.151Z,1146.00
2023-05-05T01:51:26.224Z,1144.00
2023-05-05T01:52:26.223Z,1144.00
2023-05-05T01:53:26.275Z,1143.00
2023-05-05T01:54:26.303Z,1139.00
2023-05-05T01:55:26.319Z,1140.00
2023-05-05T01:56:26.366Z,1137.00
2023-05-05T01:57:26.426Z,1132.00
2023-05-05T01:58:26.429Z,1137.00
2023-05-05T01:59:26.458Z,1136.00
2023-05-05T02:00:26.504Z,1135.00
2023-05-05T02:01:26.645Z,1134.00
2023-05-05T02:02:26.662Z,1136.00
2023-05-05T02:03:26.632Z,1141.00
2023-05-05T02:04:26.675Z,1135.00
2023-05-05T02:05:26.662Z,1133.00
2023-05-05T02:06:26.763Z,1127.00
2023-05-05T02:07:26.768Z,1128.00
2023-05-05T02:08:26.788Z,1127.00
2023-05-05T02:09:27.642Z,1127.00
2023-05-05T02:10:26.880Z,1129.00
2023-05-05T02:11:26.971Z,1129.00
2023-05-05T02:12:26.962Z,1129.00
2023-05-05T02:13:27.017Z,1129.00
2023-05-05T02:14:27.016Z,1126.00
2023-05-05T02:15:27.081Z,1123.00
2023-05-05T02:16:27.094Z,1119.00
2023-05-05T02:17:27.140Z,1114.00
2023-05-05T02:18:27.152Z,1117.00
2023-05-05T02:19:27.217Z,1118.00
2023-05-05T02:20:27.243Z,1124.00
2023-05-05T02:21:27.286Z,1125.00
2023-05-05T02:22:27.302Z,1127.00
2023-05-05T02:23:27.400Z,1126.00
2023-05-05T02:24:27.381Z,1125.00
2023-05-05T02:25:27.428Z,1125.00
2023-05-05T02:26:27.478Z,1127.00
2023-05-05T02:27:27.496Z,1127.00
2023-05-05T02:28:27.557Z,1123.00
2023-05-05T02:29:27.615Z,1123.00
2023-05-05T02:30:27.616Z,1121.00
2023-05-05T02:31:27.719Z,1121.00
2023-05-05T02:32:27.730Z,1121.00
2023-05-05T02:33:27.740Z,1124.00
2023-05-05T02:34:27.850Z,1123.00
2023-05-05T02:35:27.828Z,1122.00
2023-05-05T02:36:27.892Z,1121.00
2023-05-05T02:37:27.940Z,1123.00
2023-05-05T02:38:27.967Z,1124.00
2023-05-05T02:39:27.986Z,1123.00
2023-05-05T02:40:28.046Z,1120.00
2023-05-05T02:41:28.076Z,1117.00
2023-05-05T02:42:28.113Z,1117.00
2023-05-05T02:43:28.147Z,1113.00
2023-05-05T02:44:28.181Z,1108.00
2023-05-05T02:45:28.243Z,1108.00
2023-05-05T02:46:28.675Z,1107.00
2023-05-05T02:47:28.343Z,1110.00
2023-05-05T02:48:28.375Z,1109.00
2023-05-05T02:49:28.406Z,1110.00
2023-05-05T02:50:28.439Z,1109.00
2023-05-05T02:51:28.527Z,1108.00
2023-05-05T02:52:28.493Z,1107.00
2023-05-05T02:53:28.589Z,1109.00
2023-05-05T02:54:28.675Z,1109.00
2023-05-05T02:55:28.634Z,1100.00
2023-05-05T02:56:28.645Z,1102.00
2023-05-05T02:57:28.746Z,1103.00
2023-05-05T02:58:28.783Z,1099.00
2023-05-05T02:59:28.769Z,1097.00
2023-05-05T03:00:28.819Z,1098.00
2023-05-05T03:01:28.882Z,1100.00
2023-05-05T03:02:29.024Z,1100.00
2023-05-05T03:03:28.988Z,1101.00
2023-05-05T03:04:29.009Z,1099.00
2023-05-05T03:05:29.018Z,1100.00
2023-05-05T03:06:29.053Z,1101.00
2023-05-05T03:07:29.059Z,1102.00
2023-05-05T03:08:29.130Z,1101.00
2023-05-05T03:09:29.182Z,1101.00
2023-05-05T03:10:29.229Z,1101.00
2023-05-05T03:11:29.243Z,1102.00
2023-05-05T03:12:29.286Z,1099.00
2023-05-05T03:13:29.335Z,1100.00
2023-05-05T03:14:32.049Z,1098.00
2023-05-05T03:15:29.359Z,1097.00
2023-05-05T03:16:29.443Z,1097.00
2023-05-05T03:17:29.350Z,1098.00
2023-05-05T03:18:29.383Z,1098.00
2023-05-05T03:19:29.332Z,1096.00
2023-05-05T03:20:29.345Z,1096.00
2023-05-05T03:21:29.318Z,1098.00
2023-05-05T03:22:29.354Z,1097.00
2023-05-05T03:23:29.296Z,1095.00
2023-05-05T03:24:29.320Z,1098.00
2023-05-05T03:25:29.290Z,1095.00
2023-05-05T03:26:29.310Z,1094.00
2023-05-05T03:27:29.271Z,1093.00
2023-05-05T03:28:29.308Z,1094.00
2023-05-05T03:29:29.268Z,1093.00
2023-05-05T03:30:29.282Z,1092.00
2023-05-05T03:31:29.330Z,1092.00
2023-05-05T03:32:29.321Z,1093.00
2023-05-05T03:33:29.241Z,1092.00
2023-05-05T03:34:29.239Z,1090.00
2023-05-05T03:35:29.242Z,1091.00
2023-05-05T03:36:29.575Z,1088.00
2023-05-05T03:37:29.216Z,1089.00
2023-05-05T03:38:29.230Z,1091.00
2023-05-05T03:39:29.198Z,1087.00
2023-05-05T03:40:40.458Z,1082.00
2023-05-05T03:41:30.216Z,1084.00
2023-05-05T03:42:29.230Z,1086.00
2023-05-05T03:43:29.223Z,1085.00
2023-05-05T03:44:29.192Z,1082.00
2023-05-05T03:45:29.212Z,1081.00
2023-05-05T03:46:29.172Z,1080.00
2023-05-05T03:47:29.201Z,1082.00
2023-05-05T03:48:29.151Z,1082.00
2023-05-05T03:49:29.191Z,1080.00
2023-05-05T03:50:29.159Z,1081.00
2023-05-05T03:51:29.154Z,1081.00
2023-05-05T03:52:29.165Z,1079.00
2023-05-05T03:53:29.143Z,1079.00
2023-05-05T03:54:29.118Z,1079.00
2023-05-05T03:55:29.174Z,1076.00
2023-05-05T03:56:29.200Z,1075.00
2023-05-05T03:57:29.271Z,1072.00
2023-05-05T03:58:29.307Z,1070.00
2023-05-05T03:59:29.322Z,1072.00
2023-05-05T04:00:29.364Z,1074.00
2023-05-05T04:01:29.436Z,1075.00
2023-05-05T04:02:29.490Z,1078.00
2023-05-05T04:03:29.581Z,1075.00
2023-05-05T04:04:29.599Z,1069.00
2023-05-05T04:05:29.531Z,1067.00
2023-05-05T04:06:29.571Z,1065.00
2023-05-05T04:07:29.601Z,1066.00
2023-05-05T04:08:29.630Z,1064.00
2023-05-05T04:09:29.687Z,1063.00
2023-05-05T04:10:29.762Z,1062.00
2023-05-05T04:11:29.758Z,1062.00
2023-05-05T04:12:29.879Z,1062.00
2023-05-05T04:13:29.862Z,1061.00
2023-05-05T04:14:29.909Z,1058.00
2023-05-05T04:15:29.930Z,1060.00
2023-05-05T04:16:30.088Z,1060.00
2023-05-05T04:17:30.067Z,1060.00
2023-05-05T04:18:30.080Z,1060.00
2023-05-05T04:19:30.103Z,1059.00
2023-05-05T04:20:30.135Z,1060.00
2023-05-05T04:21:30.162Z,1065.00
2023-05-05T04:22:30.213Z,1059.00
2023-05-05T04:23:30.252Z,1059.00
2023-05-05T04:24:30.301Z,1053.00
2023-05-05T04:25:30.320Z,1056.00
2023-05-05T04:26:30.339Z,1053.00
2023-05-05T04:27:30.411Z,1054.00
2023-05-05T04:28:30.486Z,1056.00
2023-05-05T04:29:30.461Z,1052.00
2023-05-05T04:30:30.505Z,1049.00
2023-05-05T04:31:30.635Z,1044.00
2023-05-05T04:32:30.616Z,1043.00
2023-05-05T04:33:30.611Z,1043.00
2023-05-05T04:34:30.671Z,1043.00
2023-05-05T04:35:30.673Z,1043.00
2023-05-05T04:36:30.741Z,1045.00
2023-05-05T04:37:30.735Z,1043.00
2023-05-05T04:38:30.839Z,1042.00
2023-05-05T04:39:30.873Z,1042.00
2023-05-05T04:40:30.895Z,1040.00
2023-05-05T04:41:30.917Z,1037.00
2023-05-05T04:42:30.928Z,1037.00
2023-05-05T04:43:30.960Z,1035.00
2023-05-05T04:44:31.003Z,1034.00
2023-05-05T04:45:31.047Z,1033.00
2023-05-05T04:46:31.095Z,1034.00
2023-05-05T04:47:31.110Z,1035.00
2023-05-05T04:48:31.141Z,1035.00
2023-05-05T04:49:31.216Z,1035.00
2023-05-05T04:50:31.216Z,1033.00
2023-05-05T04:51:31.250Z,1032.00
2023-05-05T04:52:31.391Z,1033.00
2023-05-05T04:53:31.340Z,1035.00
2023-05-05T04:54:31.367Z,1037.00
2023-05-05T04:55:31.406Z,1036.00
2023-05-05T04:56:31.445Z,1042.00
2023-05-05T04:57:31.494Z,1042.00
2023-05-05T04:58:31.512Z,1040.00
2023-05-05T04:59:31.538Z,1037.00
2023-05-05T05:00:31.595Z,1037.00
2023-05-05T05:01:31.707Z,1037.00
2023-05-05T05:02:31.717Z,1036.00
2023-05-05T05:03:31.753Z,1036.00
2023-05-05T05:04:31.719Z,1035.00
2023-05-05T05:05:31.785Z,1036.00
2023-05-05T05:06:31.795Z,1035.00
2023-05-05T05:07:31.846Z,1032.00
2023-05-05T05:08:31.881Z,1029.00
2023-05-05T05:09:31.967Z,1031.00
2023-05-05T05:10:31.941Z,1031.00
2023-05-05T05:11:31.999Z,1032.00
2023-05-05T05:12:32.084Z,1031.00
2023-05-05T05:13:32.094Z,1034.00
2023-05-05T05:14:32.105Z,1034.00
2023-05-05T05:15:32.116Z,1034.00
2023-05-05T05:16:32.198Z,1037.00
2023-05-05T05:17:32.214Z,1031.00
2023-05-05T05:18:32.233Z,1034.00
2023-05-05T05:19:32.253Z,1032.00
2023-05-05T05:20:32.299Z,1033.00
2023-05-05T05:21:32.341Z,1029.00
2023-05-05T05:22:32.338Z,1026.00
2023-05-05T05:23:32.375Z,1025.00
2023-05-05T05:24:32.505Z,1022.00
2023-05-05T05:25:32.459Z,1025.00
2023-05-05T05:26:32.494Z,1024.00
2023-05-05T05:27:32.547Z,1020.00
2023-05-05T05:28:32.583Z,1023.00
2023-05-05T05:29:32.583Z,1022.00
2023-05-05T05:30:32.640Z,1019.00
2023-05-05T05:31:32.797Z,1017.00
2023-05-05T05:32:32.725Z,1016.00
2023-05-05T05:33:32.716Z,1012.00
2023-05-05T05:34:32.774Z,1002.00
2023-05-05T05:35:32.904Z,1181.00
2023-05-05T05:36:32.913Z,1124.00
2023-05-05T05:37:32.938Z,1158.00
2023-05-05T05:38:33.727Z,1160.00
2023-05-05T05:39:32.947Z,1179.00
2023-05-05T05:40:32.945Z,1279.00
2023-05-05T05:41:32.968Z,1333.00
2023-05-05T05:42:33.756Z,1333.00
2023-05-05T05:43:33.103Z,1354.00
2023-05-05T05:44:33.078Z,1384.00
2023-05-05T05:45:33.095Z,1434.00
2023-05-05T05:46:33.252Z,1466.00
2023-05-05T05:47:33.162Z,1532.00
2023-05-05T05:48:33.114Z,1540.00
2023-05-05T05:49:33.197Z,1551.00
2023-05-05T05:50:33.204Z,1580.00
2023-05-05T05:51:33.218Z,1596.00
2023-05-05T05:52:33.242Z,1652.00
2023-05-05T05:53:33.269Z,1679.00
2023-05-05T05:54:33.261Z,1747.00
2023-05-05T05:55:33.263Z,1768.00
2023-05-05T05:56:33.337Z,1775.00
2023-05-05T05:57:33.416Z,1844.00
2023-05-05T05:58:33.420Z,1861.00
2023-05-05T05:59:33.514Z,1908.00
2023-05-05T06:00:33.578Z,1965.00
2023-05-05T06:01:33.650Z,1973.00
2023-05-05T06:02:33.734Z,1988.00
2023-05-05T06:03:33.861Z,2065.00
2023-05-05T06:04:33.898Z,2067.00
2023-05-05T06:05:33.829Z,2084.00
2023-05-05T06:06:34.760Z,2107.00
2023-05-05T06:07:33.929Z,2170.00
2023-05-05T06:08:34.236Z,2187.00
2023-05-05T06:09:33.994Z,2196.00
2023-05-05T06:10:34.312Z,2209.00
2023-05-05T06:11:34.092Z,2235.00
2023-05-05T06:12:34.121Z,2241.00
2023-05-05T06:13:34.169Z,2253.00
2023-05-05T06:14:34.179Z,2236.00
2023-05-05T06:15:34.273Z,2193.00
2023-05-05T06:16:34.365Z,2080.00
2023-05-05T06:17:34.286Z,2047.00
2023-05-05T06:18:34.331Z,1997.00
2023-05-05T06:19:34.399Z,1900.00
2023-05-05T06:20:34.419Z,1839.00
2023-05-05T06:21:34.485Z,1797.00
2023-05-05T06:22:34.623Z,1717.00
2023-05-05T06:23:34.555Z,1660.00
2023-05-05T06:24:34.592Z,1644.00
2023-05-05T06:25:34.839Z,1639.00
2023-05-05T06:26:34.672Z,1629.00
2023-05-05T06:27:35.445Z,1613.00
2023-05-05T06:28:35.281Z,1591.00
2023-05-05T06:29:34.775Z,1567.00
2023-05-05T06:30:34.848Z,1555.00
2023-05-05T06:31:35.800Z,1524.00
2023-05-05T06:32:34.958Z,1507.00
2023-05-05T06:33:34.949Z,1508.00
2023-05-05T06:34:35.020Z,1521.00
2023-05-05T06:35:35.071Z,1519.00
2023-05-05T06:36:35.113Z,1472.00
2023-05-05T06:37:35.126Z,1444.00
2023-05-05T06:38:35.244Z,1104.00
2023-05-05T06:39:35.206Z,1036.00
2023-05-05T06:40:35.263Z,1040.00
2023-05-05T06:41:35.314Z,1047.00
2023-05-05T06:42:35.355Z,979.00
2023-05-05T06:43:35.453Z,933.00
2023-05-05T06:44:35.474Z,907.00
2023-05-05T06:45:35.448Z,866.00
2023-05-05T06:46:35.635Z,848.00
2023-05-05T06:47:35.545Z,839.00
2023-05-05T06:48:36.407Z,801.00
2023-05-05T06:49:35.657Z,787.00
2023-05-05T06:50:35.695Z,772.00
2023-05-05T06:51:35.758Z,765.00
2023-05-05T06:52:35.764Z,758.00
2023-05-05T06:53:35.804Z,755.00
2023-05-05T06:54:35.914Z,757.00
2023-05-05T06:55:35.889Z,791.00
2023-05-05T06:56:35.945Z,784.00
2023-05-05T06:57:35.967Z,768.00
2023-05-05T06:58:35.921Z,758.00
2023-05-05T06:59:35.978Z,759.00
2023-05-05T07:00:36.008Z,756.00
2023-05-05T07:01:36.042Z,748.00
2023-05-05T07:02:36.035Z,736.00
2023-05-05T07:03:36.425Z,729.00
2023-05-05T07:04:36.107Z,720.00
2023-05-05T07:05:36.064Z,701.00
2023-05-05T07:06:36.042Z,695.00
2023-05-05T07:07:36.068Z,694.00
2023-05-05T07:08:36.080Z,695.00
2023-05-05T07:09:36.078Z,692.00
2023-05-05T07:10:36.108Z,690.00
2023-05-05T07:11:36.094Z,683.00
2023-05-05T07:12:36.114Z,676.00
2023-05-05T07:13:36.119Z,675.00
2023-05-05T07:14:36.134Z,671.00
2023-05-05T07:15:36.770Z,672.00
2023-05-05T07:16:36.254Z,675.00
2023-05-05T07:17:36.180Z,685.00
2023-05-05T07:18:36.151Z,693.00
2023-05-05T07:19:36.202Z,693.00
2023-05-05T07:20:36.476Z,691.00
2023-05-05T07:21:36.258Z,665.00
2023-05-05T07:22:36.291Z,639.00
2023-05-05T07:23:36.389Z,631.00
2023-05-05T07:24:37.397Z,625.00
2023-05-05T07:25:36.289Z,620.00
2023-05-05T07:26:36.312Z,609.00
2023-05-05T07:27:36.279Z,599.00
2023-05-05T07:28:36.803Z,593.00
2023-05-05T07:29:36.351Z,591.00
2023-05-05T07:30:36.337Z,593.00
2023-05-05T07:31:36.524Z,598.00
2023-05-05T07:32:36.388Z,689.00
2023-05-05T07:33:36.551Z,738.00
2023-05-05T07:34:36.515Z,741.00
2023-05-05T07:35:36.577Z,770.00
2023-05-05T07:36:36.764Z,807.00
2023-05-05T07:37:36.671Z,808.00
2023-05-05T07:38:36.687Z,816.00
2023-05-05T07:39:36.903Z,833.00
2023-05-05T07:40:36.821Z,873.00
2023-05-05T07:41:36.847Z,877.00
2023-05-05T07:42:36.898Z,899.00
2023-05-05T07:43:38.297Z,903.00
2023-05-05T07:44:37.018Z,920.00
2023-05-05T07:45:37.021Z,926.00
2023-05-05T07:46:37.216Z,929.00
2023-05-05T07:47:37.131Z,936.00
2023-05-05T07:48:38.815Z,945.00
2023-05-05T07:49:37.179Z,963.00
2023-05-05T07:50:37.266Z,968.00
2023-05-05T07:51:37.272Z,978.00
2023-05-05T07:52:45.086Z,983.00
2023-05-05T07:53:38.288Z,977.00
2023-05-05T07:54:37.333Z,974.00
2023-05-05T07:55:37.299Z,976.00
2023-05-05T07:56:37.265Z,978.00
2023-05-05T07:57:37.278Z,978.00
2023-05-05T07:58:37.316Z,983.00
2023-05-05T07:59:37.278Z,987.00
2023-05-05T08:00:37.234Z,991.00
2023-05-05T08:01:37.249Z,994.00
2023-05-05T08:02:37.312Z,1023.00
2023-05-05T08:03:37.422Z,1039.00
2023-05-05T08:04:37.245Z,1068.00
2023-05-05T08:05:37.277Z,1111.00
2023-05-05T08:06:37.354Z,1166.00
2023-05-05T08:07:37.371Z,1196.00
2023-05-05T08:08:37.522Z,1209.00
2023-05-05T08:09:37.532Z,1256.00
2023-05-05T08:10:37.486Z,1270.00
2023-05-05T08:11:37.506Z,1303.00
2023-05-05T08:12:37.543Z,1321.00
2023-05-05T08:13:37.549Z,1385.00
2023-05-05T08:14:37.603Z,1403.00
2023-05-05T08:15:37.680Z,1459.00
2023-05-05T08:16:37.684Z,1465.00
2023-05-05T08:17:37.736Z,1476.00
2023-05-05T08:18:37.816Z,1527.00
2023-05-05T08:19:37.724Z,1541.00
2023-05-05T08:20:37.748Z,1595.00
2023-05-05T08:21:37.800Z,1614.00
2023-05-05T08:22:37.847Z,1700.00
2023-05-05T08:23:37.823Z,1722.00
2023-05-05T08:24:37.962Z,1756.00
2023-05-05T08:25:37.939Z,1775.00
2023-05-05T08:26:37.889Z,1810.00
2023-05-05T08:27:37.925Z,1822.00
2023-05-05T08:28:37.920Z,1813.00
2023-05-05T08:29:38.009Z,1805.00
2023-05-05T08:30:38.005Z,1762.00
2023-05-05T08:31:38.117Z,1755.00
2023-05-05T08:32:38.124Z,1747.00
2023-05-05T08:33:38.066Z,1740.00
2023-05-05T08:34:38.204Z,1736.00
2023-05-05T08:35:38.117Z,1717.00
2023-05-05T08:36:38.159Z,1712.00
2023-05-05T08:37:38.268Z,1702.00
2023-05-05T08:38:38.223Z,1679.00
2023-05-05T08:39:38.327Z,1678.00
2023-05-05T08:40:38.383Z,1685.00
2023-05-05T08:41:38.335Z,1693.00
2023-05-05T08:42:39.466Z,1749.00
2023-05-05T08:43:38.571Z,1737.00
2023-05-05T08:44:38.849Z,1820.00
2023-05-05T08:45:38.471Z,1815.00
2023-05-05T08:46:38.519Z,1830.00
2023-05-05T08:47:38.597Z,1844.00
2023-05-05T08:48:38.577Z,1848.00
2023-05-05T08:49:38.606Z,1865.00
2023-05-05T08:50:38.623Z,1872.00
2023-05-05T08:51:38.647Z,1874.00
2023-05-05T08:52:38.744Z,1873.00
2023-05-05T08:53:38.717Z,1861.00
2023-05-05T08:54:38.747Z,1793.00
2023-05-05T08:55:38.786Z,1672.00
2023-05-05T08:56:38.853Z,1673.00
2023-05-05T08:57:38.862Z,1690.00
2023-05-05T08:58:38.857Z,1686.00
2023-05-05T08:59:38.967Z,1689.00
2023-05-05T09:00:38.897Z,1686.00
2023-05-05T09:01:39.002Z,1586.00
2023-05-05T09:02:38.975Z,1620.00
2023-05-05T09:03:39.005Z,1613.00
2023-05-05T09:04:38.973Z,1617.00
2023-05-05T09:05:39.043Z,1605.00
2023-05-05T09:06:39.022Z,1596.00
2023-05-05T09:07:39.070Z,1583.00
2023-05-05T09:08:39.074Z,1573.00
2023-05-05T09:09:39.839Z,1568.00
2023-05-05T09:10:39.100Z,1576.00
2023-05-05T09:11:39.049Z,1582.00
2023-05-05T09:12:39.350Z,1576.00
2023-05-05T09:13:39.112Z,1570.00
2023-05-05T09:14:39.142Z,1572.00
2023-05-05T09:15:39.248Z,1571.00
2023-05-05T09:16:39.261Z,1571.00
2023-05-05T09:17:39.252Z,1480.00
2023-05-05T09:18:39.286Z,1498.00
2023-05-05T09:19:39.301Z,1512.00
2023-05-05T09:20:39.285Z,1532.00
2023-05-05T09:21:39.439Z,1551.00
2023-05-05T09:22:39.369Z,1539.00
2023-05-05T09:23:39.360Z,1507.00
2023-05-05T09:24:39.861Z,1520.00
2023-05-05T09:25:41.333Z,1573.00
2023-05-05T09:26:39.448Z,1567.00
2023-05-05T09:27:39.418Z,1573.00
2023-05-05T09:28:39.537Z,1577.00
2023-05-05T09:29:39.474Z,1573.00
2023-05-05T09:30:39.535Z,1568.00
2023-05-05T09:31:39.502Z,1552.00
2023-05-05T09:32:39.880Z,1534.00
2023-05-05T09:33:39.736Z,1496.00
2023-05-05T09:34:39.567Z,1146.00
2023-05-05T09:35:39.601Z,937.00
2023-05-05T09:36:39.665Z,989.00
2023-05-05T09:37:39.693Z,1179.00
2023-05-05T09:38:39.723Z,1134.00
2023-05-05T09:39:39.701Z,1022.00
2023-05-05T09:40:39.773Z,1023.00
2023-05-05T09:41:39.734Z,1010.00
2023-05-05T09:42:39.743Z,962.00
2023-05-05T09:43:39.824Z,930.00
2023-05-05T09:44:40.418Z,929.00
2023-05-05T09:45:39.802Z,931.00
2023-05-05T09:46:39.854Z,922.00
2023-05-05T09:47:39.969Z,909.00
2023-05-05T09:48:39.863Z,911.00
2023-05-05T09:49:39.895Z,901.00
2023-05-05T09:50:39.882Z,896.00
2023-05-05T09:51:39.904Z,892.00
2023-05-05T09:52:39.949Z,887.00
2023-05-05T09:53:39.964Z,853.00
2023-05-05T09:54:39.975Z,854.00
2023-05-05T09:55:40.036Z,859.00
2023-05-05T09:56:40.058Z,854.00
2023-05-05T09:57:40.109Z,842.00
2023-05-05T09:58:40.164Z,834.00
2023-05-05T09:59:40.103Z,833.00
2023-05-05T10:00:40.140Z,836.00
2023-05-05T10:01:40.221Z,814.00
2023-05-05T10:02:40.215Z,790.00
2023-05-05T10:03:40.228Z,794.00
2023-05-05T10:04:40.366Z,794.00
2023-05-05T10:05:40.316Z,789.00
2023-05-05T10:06:40.298Z,786.00
2023-05-05T10:07:40.350Z,785.00
2023-05-05T10:08:40.336Z,768.00
2023-05-05T10:09:40.393Z,772.00
2023-05-05T10:10:40.396Z,757.00
2023-05-05T10:11:40.466Z,759.00
2023-05-05T10:12:40.587Z,753.00
2023-05-05T10:13:40.488Z,748.00
2023-05-05T10:14:40.527Z,725.00
2023-05-05T10:15:40.528Z,728.00
2023-05-05T10:16:40.720Z,724.00
2023-05-05T10:17:42.569Z,725.00
2023-05-05T10:18:41.642Z,727.00
2023-05-05T10:19:40.652Z,723.00
2023-05-05T10:20:40.620Z,719.00
2023-05-05T10:21:42.094Z,720.00
2023-05-05T10:22:40.550Z,718.00
2023-05-05T10:23:40.565Z,714.00
2023-05-05T10:24:40.596Z,712.00
2023-05-05T10:25:40.561Z,710.00
2023-05-05T10:26:40.539Z,708.00
2023-05-05T10:27:40.548Z,720.00
2023-05-05T10:28:40.853Z,799.00
2023-05-05T10:29:40.527Z,849.00
2023-05-05T10:30:40.518Z,836.00
2023-05-05T10:31:40.725Z,877.00
2023-05-05T10:32:52.925Z,926.00
2023-05-05T10:33:41.627Z,934.00
2023-05-05T10:34:40.550Z,937.00
2023-05-05T10:35:40.496Z,1006.00
2023-05-05T10:36:40.480Z,1056.00
2023-05-05T10:37:40.502Z,1079.00
2023-05-05T10:38:40.478Z,1132.00
2023-05-05T10:39:40.444Z,1139.00
2023-05-05T10:40:40.483Z,1158.00
2023-05-05T10:41:40.454Z,1215.00
2023-05-05T10:42:40.502Z,1229.00
2023-05-05T10:43:40.916Z,1248.00
2023-05-05T10:44:40.885Z,1294.00
2023-05-05T10:45:40.532Z,1309.00
2023-05-05T10:46:40.554Z,1327.00
2023-05-05T10:47:40.508Z,1352.00
2023-05-05T10:48:40.463Z,1369.00
2023-05-05T10:49:40.877Z,1413.00
2023-05-05T10:50:40.464Z,1413.00
2023-05-05T10:51:41.309Z,1431.00
2023-05-05T10:52:40.494Z,1476.00
2023-05-05T10:53:40.571Z,1484.00
2023-05-05T10:54:40.656Z,1512.00
2023-05-05T10:55:40.608Z,1535.00
2023-05-05T10:56:40.651Z,1556.00
2023-05-05T10:57:40.797Z,1574.00
2023-05-05T10:58:58.228Z,1590.00
2023-05-05T10:59:41.754Z,1606.00
2023-05-05T11:00:40.771Z,1624.00
2023-05-05T11:01:40.726Z,1655.00
2023-05-05T11:02:40.780Z,1675.00
2023-05-05T11:03:40.757Z,1754.00
2023-05-05T11:04:40.941Z,1349.00
2023-05-05T11:05:40.693Z,1036.00
2023-05-05T11:06:40.714Z,886.00
2023-05-05T11:07:40.693Z,742.00
2023-05-05T11:08:40.701Z,775.00
2023-05-05T11:09:40.722Z,699.00
2023-05-05T11:10:40.754Z,712.00
2023-05-05T11:11:40.782Z,746.00
2023-05-05T11:12:40.773Z,759.00
2023-05-05T11:13:40.956Z,747.00
2023-05-05T11:14:40.968Z,715.00
2023-05-05T11:15:40.910Z,799.00
2023-05-05T11:16:41.028Z,867.00
2023-05-05T11:17:41.030Z,858.00
2023-05-05T11:18:40.992Z,857.00
2023-05-05T11:19:41.049Z,858.00
2023-05-05T11:20:41.113Z,856.00
2023-05-05T11:21:41.123Z,852.00
2023-05-05T11:22:41.136Z,848.00
2023-05-05T11:23:41.427Z,847.00
2023-05-05T11:24:41.245Z,847.00
2023-05-05T11:25:41.367Z,848.00
2023-05-05T11:26:41.334Z,849.00
2023-05-05T11:27:41.383Z,848.00
2023-05-05T11:28:41.467Z,848.00
2023-05-05T11:29:41.517Z,848.00
2023-05-05T11:30:41.591Z,847.00
2023-05-05T11:31:41.623Z,849.00
2023-05-05T11:32:41.624Z,848.00
2023-05-05T11:33:41.653Z,851.00
2023-05-05T11:34:41.741Z,850.00
2023-05-05T11:35:41.755Z,849.00
2023-05-05T11:36:41.876Z,850.00
2023-05-05T11:37:41.858Z,851.00
2023-05-05T11:38:41.883Z,853.00
2023-05-05T11:39:41.972Z,853.00
2023-05-05T11:40:42.016Z,853.00
2023-05-05T11:41:42.020Z,857.00
2023-05-05T11:42:42.076Z,862.00
2023-05-05T11:43:42.086Z,861.00
2023-05-05T11:44:42.088Z,862.00
2023-05-05T11:45:42.103Z,865.00
2023-05-05T11:46:42.261Z,866.00
2023-05-05T11:47:42.157Z,867.00
2023-05-05T11:48:42.165Z,868.00
2023-05-05T11:49:42.163Z,868.00
2023-05-05T11:50:42.161Z,866.00
2023-05-05T11:51:42.213Z,863.00
2023-05-05T11:52:42.188Z,864.00
2023-05-05T11:53:42.200Z,866.00
2023-05-05T11:54:42.219Z,862.00
2023-05-05T11:55:42.266Z,862.00
2023-05-05T11:56:42.266Z,863.00
2023-05-05T11:57:42.265Z,862.00
2023-05-05T11:58:42.397Z,862.00
2023-05-05T11:59:42.266Z,864.00
2023-05-05T12:00:42.287Z,865.00
2023-05-05T12:01:42.326Z,867.00
2023-05-05T12:02:42.391Z,867.00
2023-05-05T12:03:42.458Z,862.00
2023-05-05T12:04:42.362Z,859.00
2023-05-05T12:05:42.396Z,857.00
2023-05-05T12:06:42.399Z,857.00
2023-05-05T12:07:42.429Z,856.00
2023-05-05T12:08:42.537Z,858.00
2023-05-05T12:09:42.485Z,860.00
2023-05-05T12:10:42.526Z,862.00
2023-05-05T12:11:42.535Z,860.00